KPHN/PHN METAR and TAF weather

Enter ICAO airport designator
Station Type Date Time Source
KPHN METAR 2022/12/10 01:15 UTC NOAA

KPHN 100115Z AUTO 04009KT 10SM OVC023 01/M04 A3033 RMK AO2


Station Type Date Time Source
KPHN Decoded METAR 2022/12/10 01:15 UTC NOAA

St. Clair County International, MI, United States (KPHN) 42-55N 082-32W
Dec 09, 2022 - 08:15 PM EST / 2022.12.10 0115 UTC
Wind: from the NE (040 degrees) at 10 MPH (9 KT):0
Visibility: 10 mile(s):0
Sky conditions: overcast
Temperature: 33 F (1 C)
Windchill: 24 F (-4 C):1
Dew Point: 24 F (-4 C)
Relative Humidity: 69%
Pressure (altimeter): 30.33 in. Hg (1027 hPa)
ob: KPHN 100115Z AUTO 04009KT 10SM OVC023 01/M04 A3033 RMK AO2
cycle: 1

Station Type Date Time Source
KPHN TAF UTC NOAA

Error!

Example: see airport list